Time,TemperatureF,DewpointF,PressureIn,WindDirection,WindDirectionDegrees,WindSpeedMPH,WindSpeedGustMPH,Humidity,HourlyPrecipIn,Conditions,Clouds,dailyrainin,SoftwareType,DateUTC
2013-05-13 00:00:00,56.8,54.8,30.08,SSW,193,0.0,-999.0,93,0.03,,,0.00,VWS V14.01,2013-05-13 07:00:00,
2013-05-13 00:02:00,56.8,54.8,30.08,SSW,193,0.0,-999.0,93,0.03,,,0.00,VWS V14.01,2013-05-13 07:02:00,
2013-05-13 00:07:00,56.8,54.8,30.08,SSW,193,0.0,-999.0,93,0.03,,,0.00,VWS V14.01,2013-05-13 07:07:00,
2013-05-13 00:12:00,56.8,54.8,30.07,SSW,193,0.0,-999.0,93,0.03,,,0.00,VWS V14.01,2013-05-13 07:12:00,
2013-05-13 00:15:00,56.6,54.6,30.08,SSW,193,1.0,-999.0,93,0.03,,,0.00,VWS V14.01,2013-05-13 07:15:00,
2013-05-13 00:17:00,56.7,54.7,30.08,SSW,193,0.0,-999.0,93,0.03,,,0.00,VWS V14.01,2013-05-13 07:17:00,
2013-05-13 00:22:00,56.6,54.6,30.08,SSW,193,0.0,-999.0,93,0.03,,,0.00,VWS V14.01,2013-05-13 07:22:00,
2013-05-13 00:27:00,56.5,54.5,30.08,SSW,193,0.0,-999.0,93,0.03,,,0.00,VWS V14.01,2013-05-13 07:27:00,
2013-05-13 00:30:00,56.6,54.9,30.07,SSW,193,0.0,-999.0,94,0.03,,,0.00,VWS V14.01,2013-05-13 07:30:00,
2013-05-13 00:32:00,56.6,54.9,30.08,SSW,193,0.0,-999.0,94,0.03,,,0.00,VWS V14.01,2013-05-13 07:32:00,
2013-05-13 00:37:00,56.6,54.9,30.08,SSW,193,0.0,-999.0,94,0.03,,,0.00,VWS V14.01,2013-05-13 07:37:00,
2013-05-13 00:42:00,56.5,54.8,30.08,SSW,193,1.0,-999.0,94,0.03,,,0.00,VWS V14.01,2013-05-13 07:42:00,
2013-05-13 00:45:00,56.5,54.8,30.08,SSW,193,0.0,-999.0,94,0.03,,,0.00,VWS V14.01,2013-05-13 07:45:00,
2013-05-13 00:48:00,56.5,54.8,30.08,SSW,193,0.0,-999.0,94,0.02,,,0.00,VWS V14.01,2013-05-13 07:48:00,
2013-05-13 00:53:00,56.4,54.7,30.08,SSW,193,1.0,-999.0,94,0.02,,,0.00,VWS V14.01,2013-05-13 07:53:00,
2013-05-13 00:58:00,56.6,54.9,30.07,SSW,193,0.0,-999.0,94,0.02,,,0.00,VWS V14.01,2013-05-13 07:58:00,
2013-05-13 01:00:00,56.6,54.9,30.07,SSW,193,0.0,-999.0,94,0.02,,,0.00,VWS V14.01,2013-05-13 08:00:00,
2013-05-13 01:03:00,56.7,55.0,30.07,SSW,193,0.0,-999.0,94,0.00,,,0.00,VWS V14.01,2013-05-13 08:03:00,
2013-05-13 01:08:00,56.5,54.8,30.07,SSW,193,0.0,-999.0,94,0.00,,,0.00,VWS V14.01,2013-05-13 08:08:00,
2013-05-13 01:13:00,56.3,54.6,30.07,SSW,193,0.0,-999.0,94,0.00,,,0.00,VWS V14.01,2013-05-13 08:13:00,
2013-05-13 01:15:00,56.1,54.4,30.07,SSW,193,0.0,-999.0,94,0.00,,,0.00,VWS V14.01,2013-05-13 08:15:00,
2013-05-13 01:18:00,56.1,54.4,30.07,SSW,193,0.0,-999.0,94,0.00,,,0.00,VWS V14.01,2013-05-13 08:18:00,
2013-05-13 01:23:00,55.9,54.2,30.07,SSW,193,0.0,-999.0,94,0.00,,,0.00,VWS V14.01,2013-05-13 08:23:00,
2013-05-13 01:28:00,55.9,54.2,30.07,SSW,193,0.0,-999.0,94,0.00,,,0.00,VWS V14.01,2013-05-13 08:28:00,
2013-05-13 01:30:00,55.8,54.1,30.06,SSW,193,0.0,-999.0,94,0.00,,,0.00,VWS V14.01,2013-05-13 08:30:00,
2013-05-13 01:33:00,55.7,54.0,30.07,SSW,193,0.0,-999.0,94,0.00,,,0.00,VWS V14.01,2013-05-13 08:33:00,
2013-05-13 01:38:00,55.6,53.9,30.07,SSW,193,0.0,-999.0,94,0.00,,,0.00,VWS V14.01,2013-05-13 08:38:00,
2013-05-13 01:43:00,55.6,54.2,30.07,SSW,193,0.0,-999.0,95,0.00,,,0.00,VWS V14.01,2013-05-13 08:43:00,
2013-05-13 01:45:00,55.7,54.3,30.06,SSW,193,2.0,-999.0,95,0.00,,,0.00,VWS V14.01,2013-05-13 08:45:00,
2013-05-13 01:48:00,55.7,54.3,30.06,SSW,193,1.0,-999.0,95,0.00,,,0.00,VWS V14.01,2013-05-13 08:48:00,
2013-05-13 01:53:00,55.7,54.3,30.06,SSW,193,0.0,-999.0,95,0.00,,,0.00,VWS V14.01,2013-05-13 08:53:00,
2013-05-13 01:58:00,55.5,54.1,30.06,SSW,193,0.0,-999.0,95,0.00,,,0.00,VWS V14.01,2013-05-13 08:58:00,
2013-05-13 02:00:00,55.5,54.1,30.06,SSW,193,0.0,-999.0,95,0.00,,,0.00,VWS V14.01,2013-05-13 09:00:00,
2013-05-13 02:03:00,55.5,54.1,30.06,SSW,193,0.0,-999.0,95,0.00,,,0.00,VWS V14.01,2013-05-13 09:03:00,
2013-05-13 02:08:00,55.6,54.2,30.06,SSW,193,0.0,-999.0,95,0.00,,,0.00,VWS V14.01,2013-05-13 09:08:00,
2013-05-13 02:13:00,55.3,53.9,30.07,SSW,193,0.0,-999.0,95,0.00,,,0.00,VWS V14.01,2013-05-13 09:13:00,
2013-05-13 02:15:00,55.2,53.8,30.07,SSW,193,0.0,-999.0,95,0.00,,,0.00,VWS V14.01,2013-05-13 09:15:00,
2013-05-13 02:18:00,55.2,53.8,30.07,SSW,193,0.0,-999.0,95,0.00,,,0.00,VWS V14.01,2013-05-13 09:18:00,
2013-05-13 02:23:00,55.3,53.9,30.06,SSW,193,0.0,-999.0,95,0.00,,,0.00,VWS V14.01,2013-05-13 09:23:00,
2013-05-13 02:28:00,55.4,54.0,30.06,SSW,193,1.0,-999.0,95,0.00,,,0.00,VWS V14.01,2013-05-13 09:28:00,
2013-05-13 02:30:00,55.4,54.0,30.06,SSW,193,0.0,-999.0,95,0.00,,,0.00,VWS V14.01,2013-05-13 09:30:00,
2013-05-13 02:33:00,55.4,54.0,30.06,SSW,193,0.0,-999.0,95,0.00,,,0.00,VWS V14.01,2013-05-13 09:33:00,
2013-05-13 02:38:00,55.5,54.1,30.06,SSW,193,0.0,-999.0,95,0.00,,,0.00,VWS V14.01,2013-05-13 09:38:00,
2013-05-13 02:43:00,55.3,53.9,30.06,SSW,193,0.0,-999.0,95,0.00,,,0.00,VWS V14.01,2013-05-13 09:43:00,
2013-05-13 02:45:00,55.1,53.7,30.06,SSW,193,0.0,-999.0,95,0.00,,,0.00,VWS V14.01,2013-05-13 09:45:00,
2013-05-13 02:48:00,55.0,53.6,30.06,SSW,193,0.0,-999.0,95,0.00,,,0.00,VWS V14.01,2013-05-13 09:48:00,
2013-05-13 02:53:00,54.9,53.5,30.06,SSW,193,0.0,-999.0,95,0.00,,,0.00,VWS V14.01,2013-05-13 09:53:00,
2013-05-13 02:58:00,54.8,53.4,30.06,SSW,193,0.0,-999.0,95,0.00,,,0.00,VWS V14.01,2013-05-13 09:58:00,
2013-05-13 03:00:00,54.9,53.5,30.06,SSW,193,0.0,-999.0,95,0.00,,,0.00,VWS V14.01,2013-05-13 10:00:00,
2013-05-13 03:03:00,55.0,53.6,30.06,SSW,193,1.0,-999.0,95,0.00,,,0.00,VWS V14.01,2013-05-13 10:03:00,
2013-05-13 03:08:00,55.0,53.6,30.06,SSW,193,0.0,-999.0,95,0.00,,,0.00,VWS V14.01,2013-05-13 10:08:00,
2013-05-13 03:13:00,54.9,53.5,30.06,SSW,193,0.0,-999.0,95,0.00,,,0.00,VWS V14.01,2013-05-13 10:13:00,
2013-05-13 03:15:00,54.8,53.4,30.05,SSW,193,0.0,-999.0,95,0.00,,,0.00,VWS V14.01,2013-05-13 10:15:00,
2013-05-13 03:18:00,54.8,53.4,30.05,SSW,193,0.0,-999.0,95,0.00,,,0.00,VWS V14.01,2013-05-13 10:18:00,
2013-05-13 03:23:00,54.7,53.3,30.05,SSW,193,0.0,-999.0,95,0.00,,,0.00,VWS V14.01,2013-05-13 10:23:00,
2013-05-13 03:28:00,54.7,53.3,30.05,SSW,193,0.0,-999.0,95,0.00,,,0.00,VWS V14.01,2013-05-13 10:28:00,
2013-05-13 03:30:00,54.8,53.4,30.05,SE,142,2.0,-999.0,95,0.00,,,0.00,VWS V14.01,2013-05-13 10:30:00,
2013-05-13 03:33:00,54.8,53.4,30.04,SE,142,0.0,-999.0,95,0.00,,,0.00,VWS V14.01,2013-05-13 10:33:00,
2013-05-13 03:38:00,54.6,53.2,30.05,SE,142,0.0,-999.0,95,0.00,,,0.00,VWS V14.01,2013-05-13 10:38:00,
2013-05-13 03:43:00,54.4,53.0,30.04,SE,142,0.0,-999.0,95,0.00,,,0.00,VWS V14.01,2013-05-13 10:43:00,
2013-05-13 03:45:00,54.3,52.9,30.05,SE,142,0.0,-999.0,95,0.00,,,0.00,VWS V14.01,2013-05-13 10:45:00,
2013-05-13 03:48:00,54.4,53.0,30.05,SE,142,0.0,-999.0,95,0.00,,,0.00,VWS V14.01,2013-05-13 10:48:00,
2013-05-13 03:53:00,54.5,53.4,30.05,SE,142,0.0,-999.0,96,0.00,,,0.00,VWS V14.01,2013-05-13 10:53:00,
2013-05-13 03:58:00,54.5,53.1,30.05,SE,142,0.0,-999.0,95,0.00,,,0.00,VWS V14.01,2013-05-13 10:58:00,
2013-05-13 04:00:00,54.5,53.1,30.05,SE,142,0.0,-999.0,95,0.00,,,0.00,VWS V14.01,2013-05-13 11:00:00,
2013-05-13 04:03:00,54.4,53.0,30.05,SE,142,0.0,-999.0,95,0.00,,,0.00,VWS V14.01,2013-05-13 11:03:00,
2013-05-13 04:08:00,54.4,53.0,30.04,SE,142,0.0,-999.0,95,0.00,,,0.00,VWS V14.01,2013-05-13 11:08:00,
2013-05-13 04:13:00,54.3,52.9,30.04,SE,142,0.0,-999.0,95,0.00,,,0.00,VWS V14.01,2013-05-13 11:13:00,
2013-05-13 04:15:00,54.3,52.9,30.04,SE,142,0.0,-999.0,95,0.00,,,0.00,VWS V14.01,2013-05-13 11:15:00,
2013-05-13 04:18:00,54.4,53.0,30.04,SE,142,0.0,-999.0,95,0.00,,,0.00,VWS V14.01,2013-05-13 11:18:00,
2013-05-13 04:23:00,54.4,53.3,30.04,SE,142,0.0,-999.0,96,0.00,,,0.00,VWS V14.01,2013-05-13 11:23:00,
2013-05-13 04:28:00,54.3,53.2,30.05,SE,142,0.0,-999.0,96,0.00,,,0.00,VWS V14.01,2013-05-13 11:28:00,
2013-05-13 04:30:00,54.4,53.3,30.05,SE,142,0.0,-999.0,96,0.00,,,0.00,VWS V14.01,2013-05-13 11:30:00,
2013-05-13 04:33:00,54.4,53.3,30.05,SE,142,0.0,-999.0,96,0.00,,,0.00,VWS V14.01,2013-05-13 11:33:00,
2013-05-13 04:38:00,54.5,53.4,30.05,SE,142,0.0,-999.0,96,0.00,,,0.00,VWS V14.01,2013-05-13 11:38:00,
2013-05-13 04:43:00,54.6,53.5,30.04,SE,142,0.0,-999.0,96,0.00,,,0.00,VWS V14.01,2013-05-13 11:43:00,
2013-05-13 04:45:00,54.7,53.6,30.04,SE,142,0.0,-999.0,96,0.00,,,0.00,VWS V14.01,2013-05-13 11:45:00,
2013-05-13 04:48:00,54.6,53.5,30.04,SE,142,0.0,-999.0,96,0.00,,,0.00,VWS V14.01,2013-05-13 11:48:00,
2013-05-13 04:53:00,54.7,53.6,30.04,SE,142,0.0,-999.0,96,0.00,,,0.00,VWS V14.01,2013-05-13 11:53:00,
2013-05-13 04:58:00,54.9,53.8,30.04,SE,142,0.0,-999.0,96,0.00,,,0.00,VWS V14.01,2013-05-13 11:58:00,
2013-05-13 05:00:00,55.0,53.9,30.04,SE,142,0.0,-999.0,96,0.00,,,0.00,VWS V14.01,2013-05-13 12:00:00,
2013-05-13 05:03:00,54.9,53.8,30.04,SE,142,0.0,-999.0,96,0.00,,,0.00,VWS V14.01,2013-05-13 12:03:00,
2013-05-13 05:08:00,54.9,53.8,30.04,SE,142,0.0,-999.0,96,0.00,,,0.00,VWS V14.01,2013-05-13 12:08:00,
2013-05-13 05:13:00,54.9,53.8,30.04,SE,142,0.0,-999.0,96,0.00,,,0.00,VWS V14.01,2013-05-13 12:13:00,
2013-05-13 05:15:00,54.9,53.8,30.04,SE,142,0.0,-999.0,96,0.00,,,0.00,VWS V14.01,2013-05-13 12:15:00,
2013-05-13 05:19:00,54.9,53.8,30.04,SE,142,0.0,-999.0,96,0.00,,,0.00,VWS V14.01,2013-05-13 12:19:00,
2013-05-13 05:24:00,55.0,53.9,30.04,SE,142,1.0,-999.0,96,0.00,,,0.00,VWS V14.01,2013-05-13 12:24:00,
2013-05-13 05:29:00,54.9,53.8,30.04,SE,142,0.0,-999.0,96,0.00,,,0.00,VWS V14.01,2013-05-13 12:29:00,
2013-05-13 05:30:00,54.8,53.7,30.04,SE,142,1.0,-999.0,96,0.00,,,0.00,VWS V14.01,2013-05-13 12:30:00,
2013-05-13 05:34:00,54.8,53.7,30.04,SE,142,1.0,-999.0,96,0.00,,,0.00,VWS V14.01,2013-05-13 12:34:00,
2013-05-13 05:39:00,54.7,53.6,30.04,SE,142,1.0,-999.0,96,0.00,,,0.00,VWS V14.01,2013-05-13 12:39:00,
2013-05-13 05:44:00,54.7,53.6,30.04,SE,142,0.0,-999.0,96,0.00,,,0.00,VWS V14.01,2013-05-13 12:44:00,
2013-05-13 05:45:00,54.7,53.6,30.04,SE,142,0.0,-999.0,96,0.00,,,0.00,VWS V14.01,2013-05-13 12:45:00,
2013-05-13 05:49:00,54.7,53.6,30.04,SE,142,0.0,-999.0,96,0.00,,,0.00,VWS V14.01,2013-05-13 12:49:00,
2013-05-13 05:54:00,54.7,53.6,30.04,SE,142,0.0,-999.0,96,0.00,,,0.00,VWS V14.01,2013-05-13 12:54:00,
2013-05-13 05:59:00,54.7,53.6,30.04,SE,142,0.0,-999.0,96,0.00,,,0.00,VWS V14.01,2013-05-13 12:59:00,
2013-05-13 06:00:00,54.6,53.2,30.03,SE,142,0.0,-999.0,95,0.00,,,0.00,VWS V14.01,2013-05-13 13:00:00,
2013-05-13 06:04:00,54.5,53.1,30.04,SE,142,0.0,-999.0,95,0.00,,,0.00,VWS V14.01,2013-05-13 13:04:00,
2013-05-13 06:09:00,54.5,53.4,30.03,SE,142,0.0,-999.0,96,0.00,,,0.00,VWS V14.01,2013-05-13 13:09:00,
2013-05-13 06:14:00,54.6,53.5,30.03,SE,142,0.0,-999.0,96,0.00,,,0.00,VWS V14.01,2013-05-13 13:14:00,
2013-05-13 06:15:00,54.7,53.6,30.03,SE,142,0.0,-999.0,96,0.00,,,0.00,VWS V14.01,2013-05-13 13:15:00,
2013-05-13 06:19:00,54.7,53.6,30.03,SE,142,0.0,-999.0,96,0.00,,,0.00,VWS V14.01,2013-05-13 13:19:00,
2013-05-13 06:24:00,54.8,53.7,30.03,SE,142,0.0,-999.0,96,0.00,,,0.00,VWS V14.01,2013-05-13 13:24:00,
2013-05-13 06:29:00,54.8,53.7,30.03,SE,142,0.0,-999.0,96,0.00,,,0.00,VWS V14.01,2013-05-13 13:29:00,
2013-05-13 06:30:00,54.9,53.8,30.03,SE,142,0.0,-999.0,96,0.00,,,0.00,VWS V14.01,2013-05-13 13:30:00,
2013-05-13 06:34:00,55.1,54.0,30.03,SE,142,0.0,-999.0,96,0.00,,,0.00,VWS V14.01,2013-05-13 13:34:00,
2013-05-13 06:39:00,55.1,54.0,30.03,SE,142,0.0,-999.0,96,0.00,,,0.00,VWS V14.01,2013-05-13 13:39:00,
2013-05-13 06:44:00,55.1,54.0,30.03,SE,142,0.0,-999.0,96,0.00,,,0.00,VWS V14.01,2013-05-13 13:44:00,
2013-05-13 06:45:00,55.0,53.9,30.04,SE,142,0.0,-999.0,96,0.00,,,0.00,VWS V14.01,2013-05-13 13:45:00,
2013-05-13 06:49:00,55.1,54.0,30.04,SE,142,0.0,-999.0,96,0.00,,,0.00,VWS V14.01,2013-05-13 13:49:00,
2013-05-13 06:54:00,55.1,54.0,30.04,SE,142,0.0,-999.0,96,0.00,,,0.00,VWS V14.01,2013-05-13 13:54:00,
2013-05-13 06:59:00,55.3,54.2,30.04,SE,142,1.0,-999.0,96,0.00,,,0.00,VWS V14.01,2013-05-13 13:59:00,
2013-05-13 07:00:00,55.4,54.3,30.04,SE,142,2.0,-999.0,96,0.00,,,0.00,VWS V14.01,2013-05-13 14:00:00,
2013-05-13 07:04:00,55.4,54.3,30.04,SE,142,1.0,-999.0,96,0.00,,,0.00,VWS V14.01,2013-05-13 14:04:00,
2013-05-13 07:09:00,55.4,54.3,30.04,SE,142,1.0,-999.0,96,0.00,,,0.00,VWS V14.01,2013-05-13 14:09:00,
2013-05-13 07:14:00,55.5,54.4,30.04,SE,142,1.0,-999.0,96,0.00,,,0.00,VWS V14.01,2013-05-13 14:14:00,
2013-05-13 07:15:00,55.5,54.4,30.04,SE,142,0.0,-999.0,96,0.00,,,0.00,VWS V14.01,2013-05-13 14:15:00,
2013-05-13 07:19:00,55.7,54.6,30.04,SE,142,0.0,-999.0,96,0.00,,,0.00,VWS V14.01,2013-05-13 14:19:00,
2013-05-13 07:24:00,55.7,54.6,30.03,SE,142,0.0,-999.0,96,0.00,,,0.00,VWS V14.01,2013-05-13 14:24:00,
2013-05-13 07:29:00,55.9,54.8,30.03,SE,142,0.0,-999.0,96,0.00,,,0.00,VWS V14.01,2013-05-13 14:29:00,
2013-05-13 07:30:00,55.9,54.8,30.03,SE,142,0.0,-999.0,96,0.00,,,0.00,VWS V14.01,2013-05-13 14:30:00,
2013-05-13 07:34:00,55.9,54.8,30.03,SE,142,0.0,-999.0,96,0.00,,,0.00,VWS V14.01,2013-05-13 14:34:00,
2013-05-13 07:39:00,56.0,54.9,30.03,SE,142,0.0,-999.0,96,0.00,,,0.00,VWS V14.01,2013-05-13 14:39:00,
2013-05-13 07:44:00,56.1,55.0,30.03,SE,145,1.0,-999.0,96,0.00,,,0.00,VWS V14.01,2013-05-13 14:44:00,
2013-05-13 07:45:00,56.1,55.0,30.03,SE,145,1.0,-999.0,96,0.00,,,0.00,VWS V14.01,2013-05-13 14:45:00,
2013-05-13 07:49:00,56.2,55.1,30.03,SE,145,0.0,-999.0,96,0.00,,,0.00,VWS V14.01,2013-05-13 14:49:00,
2013-05-13 07:54:00,56.4,55.0,30.03,SE,145,0.0,-999.0,95,0.00,,,0.00,VWS V14.01,2013-05-13 14:54:00,
2013-05-13 07:59:00,56.4,55.0,30.03,SE,145,0.0,-999.0,95,0.00,,,0.00,VWS V14.01,2013-05-13 14:59:00,
2013-05-13 08:00:00,56.4,55.0,30.03,South,180,0.0,-999.0,95,0.00,,,0.00,VWS V14.01,2013-05-13 15:00:00,
2013-05-13 08:04:00,56.5,55.1,30.03,South,180,0.0,-999.0,95,0.00,,,0.00,VWS V14.01,2013-05-13 15:04:00,
2013-05-13 08:09:00,56.6,55.2,30.03,South,180,0.0,-999.0,95,0.00,,,0.00,VWS V14.01,2013-05-13 15:09:00,
2013-05-13 08:14:00,56.8,55.4,30.03,South,180,0.0,-999.0,95,0.00,,,0.00,VWS V14.01,2013-05-13 15:14:00,
2013-05-13 08:15:00,56.8,55.4,30.03,South,180,0.0,-999.0,95,0.00,,,0.00,VWS V14.01,2013-05-13 15:15:00,
2013-05-13 08:19:00,56.8,55.4,30.03,South,181,2.0,-999.0,95,0.00,,,0.00,VWS V14.01,2013-05-13 15:19:00,
2013-05-13 08:24:00,56.8,55.4,30.03,SSW,209,1.0,-999.0,95,0.00,,,0.00,VWS V14.01,2013-05-13 15:24:00,
2013-05-13 08:29:00,57.1,55.7,30.03,SSW,206,1.0,-999.0,95,0.00,,,0.00,VWS V14.01,2013-05-13 15:29:00,
2013-05-13 08:30:00,57.2,55.8,30.03,South,174,1.0,-999.0,95,0.00,,,0.00,VWS V14.01,2013-05-13 15:30:00,
2013-05-13 08:34:00,57.3,55.9,30.03,South,176,0.0,-999.0,95,0.00,,,0.00,VWS V14.01,2013-05-13 15:34:00,
2013-05-13 08:39:00,57.6,56.2,30.03,SSW,202,3.0,-999.0,95,0.00,,,0.00,VWS V14.01,2013-05-13 15:39:00,
2013-05-13 08:44:00,57.6,55.9,30.03,SSE,167,2.0,-999.0,94,0.00,,,0.00,VWS V14.01,2013-05-13 15:44:00,
2013-05-13 08:45:00,57.6,55.9,30.03,SSW,206,2.0,-999.0,94,0.00,,,0.00,VWS V14.01,2013-05-13 15:45:00,
2013-05-13 08:49:00,57.7,56.0,30.03,SSE,148,3.0,-999.0,94,0.00,,,0.00,VWS V14.01,2013-05-13 15:49:00,
2013-05-13 08:54:00,57.8,55.8,30.03,SSE,165,3.0,-999.0,93,0.00,,,0.00,VWS V14.01,2013-05-13 15:54:00,
2013-05-13 08:59:00,57.8,55.8,30.03,South,174,2.0,-999.0,93,0.00,,,0.00,VWS V14.01,2013-05-13 15:59:00,
2013-05-13 09:00:00,57.9,55.6,30.03,South,170,1.0,-999.0,92,0.00,,,0.00,VWS V14.01,2013-05-13 16:00:00,
2013-05-13 09:04:00,58.1,55.8,30.03,South,191,4.0,-999.0,92,0.00,,,0.00,VWS V14.01,2013-05-13 16:04:00,
2013-05-13 09:09:00,58.2,55.9,30.02,SSE,165,2.0,-999.0,92,0.00,,,0.00,VWS V14.01,2013-05-13 16:09:00,
2013-05-13 09:14:00,58.6,56.3,30.02,SSW,192,2.0,-999.0,92,0.00,,,0.00,VWS V14.01,2013-05-13 16:14:00,
2013-05-13 09:15:00,58.6,56.0,30.02,SSW,210,4.0,-999.0,91,0.00,,,0.00,VWS V14.01,2013-05-13 16:15:00,
2013-05-13 09:19:00,58.7,56.1,30.02,SW,223,2.0,-999.0,91,0.00,,,0.00,VWS V14.01,2013-05-13 16:19:00,
2013-05-13 09:24:00,58.8,56.2,30.02,SSE,165,2.0,-999.0,91,0.00,,,0.00,VWS V14.01,2013-05-13 16:24:00,
2013-05-13 09:29:00,58.8,55.9,30.02,SSW,206,2.0,-999.0,90,0.00,,,0.00,VWS V14.01,2013-05-13 16:29:00,
2013-05-13 09:30:00,59.0,56.4,30.02,South,186,1.0,-999.0,91,0.00,,,0.00,VWS V14.01,2013-05-13 16:30:00,
2013-05-13 09:34:00,59.1,56.5,30.02,SSW,202,1.0,-999.0,91,0.00,,,0.00,VWS V14.01,2013-05-13 16:34:00,
2013-05-13 09:39:00,59.3,56.7,30.02,SSW,194,3.0,-999.0,91,0.00,,,0.00,VWS V14.01,2013-05-13 16:39:00,
2013-05-13 09:44:00,59.8,56.6,30.01,SSE,166,3.0,-999.0,89,0.00,,,0.00,VWS V14.01,2013-05-13 16:44:00,
2013-05-13 09:45:00,60.0,56.8,30.01,SSW,212,2.0,-999.0,89,0.00,,,0.00,VWS V14.01,2013-05-13 16:45:00,
2013-05-13 09:49:00,60.1,56.5,30.01,SSW,200,3.0,-999.0,88,0.00,,,0.00,VWS V14.01,2013-05-13 16:49:00,
2013-05-13 09:54:00,61.1,57.5,30.01,SE,146,3.0,-999.0,88,0.00,,,0.00,VWS V14.01,2013-05-13 16:54:00,
2013-05-13 09:59:00,61.2,57.0,30.00,SSW,211,5.0,-999.0,86,0.00,,,0.00,VWS V14.01,2013-05-13 16:59:00,
2013-05-13 10:00:00,61.1,56.9,30.00,South,184,3.0,-999.0,86,0.00,,,0.00,VWS V14.01,2013-05-13 17:00:00,
2013-05-13 10:04:00,61.3,57.4,30.00,SW,217,2.0,-999.0,87,0.00,,,0.00,VWS V14.01,2013-05-13 17:04:00,
2013-05-13 10:09:00,62.3,57.7,30.00,WSW,239,3.0,-999.0,85,0.00,,,0.00,VWS V14.01,2013-05-13 17:09:00,
2013-05-13 10:14:00,62.6,57.7,30.00,SW,225,4.0,-999.0,84,0.00,,,0.00,VWS V14.01,2013-05-13 17:14:00,
2013-05-13 10:15:00,62.6,57.0,30.00,South,171,1.0,-999.0,82,0.00,,,0.00,VWS V14.01,2013-05-13 17:15:00,
2013-05-13 10:19:00,62.7,56.8,30.00,South,179,5.0,-999.0,81,0.00,,,0.00,VWS V14.01,2013-05-13 17:19:00,
2013-05-13 10:24:00,62.3,56.4,30.00,SSW,207,7.0,-999.0,81,0.00,,,0.00,VWS V14.01,2013-05-13 17:24:00,
2013-05-13 10:29:00,62.9,57.3,30.00,SSE,148,4.0,-999.0,82,0.00,,,0.00,VWS V14.01,2013-05-13 17:29:00,
2013-05-13 10:30:00,63.7,58.1,30.00,WSW,243,4.0,-999.0,82,0.00,,,0.00,VWS V14.01,2013-05-13 17:30:00,
2013-05-13 10:34:00,63.6,57.0,30.00,SSW,198,4.0,-999.0,79,0.00,,,0.00,VWS V14.01,2013-05-13 17:34:00,
2013-05-13 10:39:00,63.5,56.5,29.99,South,182,5.0,-999.0,78,0.00,,,0.00,VWS V14.01,2013-05-13 17:39:00,
2013-05-13 10:44:00,64.0,56.3,29.99,South,180,5.0,-999.0,76,0.00,,,0.00,VWS V14.01,2013-05-13 17:44:00,
2013-05-13 10:45:00,63.9,56.6,29.99,SSW,209,6.0,-999.0,77,0.00,,,0.00,VWS V14.01,2013-05-13 17:45:00,
2013-05-13 10:50:00,64.2,56.8,29.99,South,185,2.0,-999.0,77,0.00,,,0.00,VWS V14.01,2013-05-13 17:50:00,
2013-05-13 10:55:00,65.4,58.0,29.99,SSW,196,6.0,-999.0,77,0.00,,,0.00,VWS V14.01,2013-05-13 17:55:00,
2013-05-13 11:00:00,65.2,56.7,29.99,ESE,117,5.0,-999.0,74,0.00,,,0.00,VWS V14.01,2013-05-13 18:00:00,
2013-05-13 11:05:00,65.5,55.5,29.99,South,178,6.0,-999.0,70,0.00,,,0.00,VWS V14.01,2013-05-13 18:05:00,
2013-05-13 11:10:00,64.7,55.1,29.98,SSW,205,7.0,-999.0,71,0.00,,,0.00,VWS V14.01,2013-05-13 18:10:00,
2013-05-13 11:15:00,64.8,54.8,29.98,SW,236,3.0,-999.0,70,0.00,,,0.00,VWS V14.01,2013-05-13 18:15:00,
2013-05-13 11:20:00,64.1,54.1,29.98,SE,142,4.0,-999.0,70,0.00,,,0.00,VWS V14.01,2013-05-13 18:20:00,
2013-05-13 11:25:00,63.6,54.0,29.98,SSW,207,6.0,-999.0,71,0.00,,,0.00,VWS V14.01,2013-05-13 18:25:00,
2013-05-13 11:30:00,64.1,54.5,29.97,South,187,3.0,-999.0,71,0.00,,,0.00,VWS V14.01,2013-05-13 18:30:00,
2013-05-13 11:35:00,64.2,54.2,29.97,SSW,194,4.0,-999.0,70,0.00,,,0.00,VWS V14.01,2013-05-13 18:35:00,
2013-05-13 11:40:00,64.0,53.6,29.97,SE,142,4.0,-999.0,69,0.00,,,0.00,VWS V14.01,2013-05-13 18:40:00,
2013-05-13 11:45:00,63.8,53.5,29.98,SSE,152,7.0,-999.0,69,0.00,,,0.00,VWS V14.01,2013-05-13 18:45:00,
2013-05-13 11:50:00,63.9,52.7,29.97,SSW,196,7.0,-999.0,67,0.00,,,0.00,VWS V14.01,2013-05-13 18:50:00,
2013-05-13 11:55:00,64.0,52.4,29.97,SSW,203,4.0,-999.0,66,0.00,,,0.00,VWS V14.01,2013-05-13 18:55:00,
2013-05-13 12:00:00,63.8,53.0,29.97,South,184,5.0,-999.0,68,0.00,,,0.00,VWS V14.01,2013-05-13 19:00:00,
2013-05-13 12:05:00,64.1,54.5,29.97,South,178,2.0,-999.0,71,0.00,,,0.00,VWS V14.01,2013-05-13 19:05:00,
2013-05-13 12:10:00,64.1,53.3,29.97,SW,225,3.0,-999.0,68,0.00,,,0.00,VWS V14.01,2013-05-13 19:10:00,
2013-05-13 12:15:00,64.2,53.8,29.97,SW,234,1.0,-999.0,69,0.00,,,0.00,VWS V14.01,2013-05-13 19:15:00,
2013-05-13 12:20:00,63.5,53.5,29.97,SSW,208,2.0,-999.0,70,0.00,,,0.00,VWS V14.01,2013-05-13 19:20:00,
2013-05-13 12:25:00,62.3,53.9,29.98,WSW,255,0.0,-999.0,74,0.01,,,0.01,VWS V14.01,2013-05-13 19:25:00,
2013-05-13 12:30:00,61.0,53.8,29.99,WSW,257,2.0,-999.0,77,0.02,,,0.02,VWS V14.01,2013-05-13 19:30:00,
2013-05-13 12:35:00,59.3,53.1,30.00,SSW,194,4.0,-999.0,80,0.04,,,0.04,VWS V14.01,2013-05-13 19:35:00,
2013-05-13 12:40:00,58.2,53.4,30.00,SSW,192,3.0,-999.0,84,0.04,,,0.04,VWS V14.01,2013-05-13 19:40:00,
2013-05-13 12:45:00,58.5,54.7,30.00,SSE,163,3.0,-999.0,87,0.05,,,0.05,VWS V14.01,2013-05-13 19:45:00,
2013-05-13 12:50:00,59.0,54.5,30.01,SW,234,3.0,-999.0,85,0.05,,,0.05,VWS V14.01,2013-05-13 19:50:00,
2013-05-13 12:55:00,58.6,54.1,30.01,SSE,161,2.0,-999.0,85,0.05,,,0.05,VWS V14.01,2013-05-13 19:55:00,
2013-05-13 13:00:00,58.0,53.2,30.01,SW,219,2.0,-999.0,84,0.05,,,0.05,VWS V14.01,2013-05-13 20:00:00,
2013-05-13 13:05:00,57.3,52.8,30.01,WSW,257,1.0,-999.0,85,0.06,,,0.06,VWS V14.01,2013-05-13 20:05:00,
2013-05-13 13:10:00,56.3,52.2,30.01,SSE,152,1.0,-999.0,86,0.06,,,0.06,VWS V14.01,2013-05-13 20:10:00,
2013-05-13 13:15:00,56.0,52.2,30.02,SW,229,1.0,-999.0,87,0.07,,,0.07,VWS V14.01,2013-05-13 20:15:00,
2013-05-13 13:20:00,56.6,53.4,30.02,SSW,206,3.0,-999.0,89,0.07,,,0.07,VWS V14.01,2013-05-13 20:20:00,
2013-05-13 13:25:00,56.9,53.4,30.01,SSW,210,3.0,-999.0,88,0.07,,,0.07,VWS V14.01,2013-05-13 20:25:00,
2013-05-13 13:30:00,57.1,53.6,30.01,South,191,2.0,-999.0,88,0.07,,,0.07,VWS V14.01,2013-05-13 20:30:00,
2013-05-13 13:35:00,57.8,54.3,30.01,SSW,202,5.0,-999.0,88,0.05,,,0.07,VWS V14.01,2013-05-13 20:35:00,
2013-05-13 13:40:00,58.7,54.5,30.01,South,184,6.0,-999.0,86,0.05,,,0.07,VWS V14.01,2013-05-13 20:40:00,
2013-05-13 13:45:00,59.8,55.3,30.01,North,5,2.0,-999.0,85,0.05,,,0.07,VWS V14.01,2013-05-13 20:45:00,
2013-05-13 13:50:00,60.1,55.3,30.01,SSE,166,1.0,-999.0,84,0.02,,,0.07,VWS V14.01,2013-05-13 20:50:00,
2013-05-13 13:55:00,60.0,55.2,30.02,WNW,295,3.0,-999.0,84,0.02,,,0.07,VWS V14.01,2013-05-13 20:55:00,
2013-05-13 14:00:00,60.8,55.9,30.02,SSE,161,4.0,-999.0,84,0.02,,,0.07,VWS V14.01,2013-05-13 21:00:00,
2013-05-13 14:05:00,61.3,55.4,30.02,SW,232,1.0,-999.0,81,0.02,,,0.07,VWS V14.01,2013-05-13 21:05:00,
2013-05-13 14:10:00,60.8,55.3,30.02,SSW,205,2.0,-999.0,82,0.02,,,0.07,VWS V14.01,2013-05-13 21:10:00,
2013-05-13 14:15:00,59.9,54.4,30.03,SSW,202,7.0,-999.0,82,0.02,,,0.07,VWS V14.01,2013-05-13 21:15:00,
2013-05-13 14:20:00,58.6,52.8,30.03,WSW,245,2.0,-999.0,81,0.01,,,0.08,VWS V14.01,2013-05-13 21:20:00,
2013-05-13 14:25:00,57.2,52.7,30.04,SSE,157,3.0,-999.0,85,0.02,,,0.09,VWS V14.01,2013-05-13 21:25:00,
2013-05-13 14:30:00,56.8,52.7,30.04,SSE,165,3.0,-999.0,86,0.03,,,0.10,VWS V14.01,2013-05-13 21:30:00,
2013-05-13 14:35:00,57.5,53.7,30.04,West,275,3.0,-999.0,87,0.03,,,0.10,VWS V14.01,2013-05-13 21:35:00,
2013-05-13 14:41:00,57.5,53.3,30.04,ESE,107,2.0,-999.0,86,0.03,,,0.10,VWS V14.01,2013-05-13 21:41:00,
2013-05-13 14:45:00,57.2,52.4,30.05,SSE,164,1.0,-999.0,84,0.03,,,0.10,VWS V14.01,2013-05-13 21:45:00,
2013-05-13 14:46:00,57.3,52.8,30.04,WSW,240,5.0,-999.0,85,0.03,,,0.10,VWS V14.01,2013-05-13 21:46:00,
2013-05-13 14:51:00,57.0,52.5,30.05,West,261,4.0,-999.0,85,0.03,,,0.10,VWS V14.01,2013-05-13 21:51:00,
2013-05-13 14:56:00,56.7,51.9,30.05,WSW,241,3.0,-999.0,84,0.03,,,0.10,VWS V14.01,2013-05-13 21:56:00,
2013-05-13 15:00:00,56.7,52.2,30.05,SW,223,1.0,-999.0,85,0.03,,,0.10,VWS V14.01,2013-05-13 22:00:00,
2013-05-13 15:01:00,56.6,52.2,30.05,South,177,6.0,-999.0,85,0.03,,,0.10,VWS V14.01,2013-05-13 22:01:00,
2013-05-13 15:06:00,57.1,52.6,30.05,West,275,1.0,-999.0,85,0.03,,,0.10,VWS V14.01,2013-05-13 22:06:00,
2013-05-13 15:11:00,58.4,53.9,30.05,South,188,5.0,-999.0,85,0.03,,,0.10,VWS V14.01,2013-05-13 22:11:00,
2013-05-13 15:15:00,58.6,54.1,30.05,SW,222,4.0,-999.0,85,0.03,,,0.10,VWS V14.01,2013-05-13 22:15:00,
2013-05-13 15:16:00,58.4,53.6,30.05,SSE,157,3.0,-999.0,84,0.03,,,0.10,VWS V14.01,2013-05-13 22:16:00,
2013-05-13 15:21:00,59.1,54.6,30.05,SSE,155,2.0,-999.0,85,0.03,,,0.10,VWS V14.01,2013-05-13 22:21:00,
2013-05-13 15:26:00,59.8,54.0,30.05,SSW,202,5.0,-999.0,81,0.03,,,0.10,VWS V14.01,2013-05-13 22:26:00,
2013-05-13 15:30:00,58.8,53.3,30.06,WSW,247,3.0,-999.0,82,0.03,,,0.10,VWS V14.01,2013-05-13 22:30:00,
2013-05-13 15:31:00,59.0,52.8,30.06,SW,217,2.0,-999.0,80,0.03,,,0.10,VWS V14.01,2013-05-13 22:31:00,
2013-05-13 15:36:00,58.2,51.7,30.06,South,175,3.0,-999.0,79,0.00,,,0.10,VWS V14.01,2013-05-13 22:36:00,
2013-05-13 15:41:00,57.4,51.3,30.07,WSW,257,3.0,-999.0,80,0.00,,,0.10,VWS V14.01,2013-05-13 22:41:00,
2013-05-13 15:45:00,56.3,50.2,30.07,SW,235,2.0,-999.0,80,0.00,,,0.10,VWS V14.01,2013-05-13 22:45:00,
2013-05-13 15:46:00,56.5,50.4,30.07,East,88,2.0,-999.0,80,0.00,,,0.10,VWS V14.01,2013-05-13 22:46:00,
2013-05-13 15:51:00,55.7,50.6,30.07,SSW,207,2.0,-999.0,83,0.01,,,0.11,VWS V14.01,2013-05-13 22:51:00,
2013-05-13 15:56:00,54.8,50.7,30.07,East,86,2.0,-999.0,86,0.02,,,0.12,VWS V14.01,2013-05-13 22:56:00,
2013-05-13 16:00:00,54.7,50.9,30.08,SSW,198,4.0,-999.0,87,0.02,,,0.12,VWS V14.01,2013-05-13 23:00:00,
2013-05-13 16:01:00,54.7,50.9,30.08,WSW,244,1.0,-999.0,87,0.02,,,0.12,VWS V14.01,2013-05-13 23:01:00,
2013-05-13 16:06:00,54.9,51.7,30.08,SW,234,2.0,-999.0,89,0.02,,,0.12,VWS V14.01,2013-05-13 23:06:00,
2013-05-13 16:11:00,55.9,52.4,30.08,SE,137,1.0,-999.0,88,0.02,,,0.12,VWS V14.01,2013-05-13 23:11:00,
2013-05-13 16:15:00,56.2,52.4,30.08,WSW,242,1.0,-999.0,87,0.02,,,0.12,VWS V14.01,2013-05-13 23:15:00,
2013-05-13 16:16:00,56.2,52.4,30.08,WNW,296,6.0,-999.0,87,0.02,,,0.12,VWS V14.01,2013-05-13 23:16:00,
2013-05-13 16:21:00,56.6,52.5,30.09,WSW,242,3.0,-999.0,86,0.02,,,0.12,VWS V14.01,2013-05-13 23:21:00,
2013-05-13 16:26:00,56.2,51.1,30.09,SSW,211,3.0,-999.0,83,0.02,,,0.12,VWS V14.01,2013-05-13 23:26:00,
2013-05-13 16:30:00,55.3,50.6,30.10,WSW,252,2.0,-999.0,84,0.03,,,0.13,VWS V14.01,2013-05-13 23:30:00,
2013-05-13 16:31:00,55.3,50.2,30.10,West,262,2.0,-999.0,83,0.03,,,0.13,VWS V14.01,2013-05-13 23:31:00,
2013-05-13 16:36:00,55.5,51.1,30.09,WSW,240,4.0,-999.0,85,0.03,,,0.13,VWS V14.01,2013-05-13 23:36:00,
2013-05-13 16:41:00,55.2,50.1,30.10,WSW,247,4.0,-999.0,83,0.03,,,0.13,VWS V14.01,2013-05-13 23:41:00,
2013-05-13 16:45:00,56.0,51.2,30.10,South,185,2.0,-999.0,84,0.03,,,0.13,VWS V14.01,2013-05-13 23:45:00,
2013-05-13 16:46:00,56.0,51.2,30.10,South,172,4.0,-999.0,84,0.03,,,0.13,VWS V14.01,2013-05-13 23:46:00,
2013-05-13 16:51:00,56.2,51.4,30.10,SW,221,3.0,-999.0,84,0.03,,,0.13,VWS V14.01,2013-05-13 23:51:00,
2013-05-13 16:56:00,56.9,51.8,30.10,South,177,6.0,-999.0,83,0.03,,,0.13,VWS V14.01,2013-05-13 23:56:00,
2013-05-13 17:00:00,56.9,50.8,30.10,South,186,3.0,-999.0,80,0.03,,,0.13,VWS V14.01,2013-05-14 00:00:00,
2013-05-13 17:01:00,56.9,51.5,30.10,South,191,6.0,-999.0,82,0.03,,,0.13,VWS V14.01,2013-05-14 00:01:00,
2013-05-13 17:06:00,57.3,51.5,30.11,ESE,111,3.0,-999.0,81,0.01,,,0.13,VWS V14.01,2013-05-14 00:06:00,
2013-05-13 17:11:00,57.8,51.3,30.11,WSW,244,5.0,-999.0,79,0.01,,,0.13,VWS V14.01,2013-05-14 00:11:00,
2013-05-13 17:15:00,58.2,51.4,30.11,SSW,202,2.0,-999.0,78,0.01,,,0.13,VWS V14.01,2013-05-14 00:15:00,
2013-05-13 17:16:00,58.3,51.5,30.11,SSW,211,4.0,-999.0,78,0.01,,,0.13,VWS V14.01,2013-05-14 00:16:00,
2013-05-13 17:21:00,57.9,50.0,30.11,SW,219,4.0,-999.0,75,0.01,,,0.13,VWS V14.01,2013-05-14 00:21:00,
2013-05-13 17:26:00,58.1,49.9,30.11,South,184,1.0,-999.0,74,0.01,,,0.13,VWS V14.01,2013-05-14 00:26:00,
2013-05-13 17:30:00,58.2,49.2,30.11,West,263,1.0,-999.0,72,0.01,,,0.13,VWS V14.01,2013-05-14 00:30:00,
2013-05-13 17:31:00,58.2,49.6,30.11,West,277,4.0,-999.0,73,0.01,,,0.13,VWS V14.01,2013-05-14 00:31:00,
2013-05-13 17:36:00,58.4,49.0,30.11,SW,235,3.0,-999.0,71,0.00,,,0.13,VWS V14.01,2013-05-14 00:36:00,
2013-05-13 17:41:00,58.2,47.7,30.11,WNW,300,8.0,-999.0,68,0.00,,,0.13,VWS V14.01,2013-05-14 00:41:00,
2013-05-13 17:45:00,57.9,47.4,30.12,SW,232,0.0,-999.0,68,0.00,,,0.13,VWS V14.01,2013-05-14 00:45:00,
2013-05-13 17:46:00,57.9,47.0,30.12,South,190,2.0,-999.0,67,0.00,,,0.13,VWS V14.01,2013-05-14 00:46:00,
2013-05-13 17:51:00,58.1,48.4,30.12,SSW,203,1.0,-999.0,70,0.00,,,0.13,VWS V14.01,2013-05-14 00:51:00,
2013-05-13 17:56:00,57.8,47.7,30.12,South,177,5.0,-999.0,69,0.00,,,0.13,VWS V14.01,2013-05-14 00:56:00,
2013-05-13 18:00:00,57.5,47.4,30.13,South,172,6.0,-999.0,69,0.00,,,0.13,VWS V14.01,2013-05-14 01:00:00,
2013-05-13 18:01:00,57.5,47.4,30.13,SE,126,4.0,-999.0,69,0.00,,,0.13,VWS V14.01,2013-05-14 01:01:00,
2013-05-13 18:06:00,57.3,47.6,30.13,WSW,242,2.0,-999.0,70,0.00,,,0.13,VWS V14.01,2013-05-14 01:06:00,
2013-05-13 18:11:00,56.3,47.0,30.13,SSW,199,2.0,-999.0,71,0.00,,,0.13,VWS V14.01,2013-05-14 01:11:00,
2013-05-13 18:15:00,55.8,48.0,30.14,North,350,1.0,-999.0,75,0.00,,,0.13,VWS V14.01,2013-05-14 01:15:00,
2013-05-13 18:16:00,55.8,47.3,30.14,North,350,1.0,-999.0,73,0.00,,,0.13,VWS V14.01,2013-05-14 01:16:00,
2013-05-13 18:21:00,55.1,48.0,30.15,WNW,285,5.0,-999.0,77,0.00,,,0.13,VWS V14.01,2013-05-14 01:21:00,
2013-05-13 18:26:00,54.2,48.5,30.14,South,180,2.0,-999.0,81,0.01,,,0.14,VWS V14.01,2013-05-14 01:26:00,
2013-05-13 18:30:00,54.0,48.3,30.14,SW,228,2.0,-999.0,81,0.01,,,0.14,VWS V14.01,2013-05-14 01:30:00,
2013-05-13 18:31:00,54.0,48.3,30.14,SW,227,2.0,-999.0,81,0.01,,,0.14,VWS V14.01,2013-05-14 01:31:00,
2013-05-13 18:36:00,53.8,48.1,30.15,SW,235,1.0,-999.0,81,0.01,,,0.14,VWS V14.01,2013-05-14 01:36:00,
2013-05-13 18:41:00,53.9,47.9,30.15,WSW,255,3.0,-999.0,80,0.01,,,0.14,VWS V14.01,2013-05-14 01:41:00,
2013-05-13 18:45:00,54.1,48.1,30.15,South,176,1.0,-999.0,80,0.01,,,0.14,VWS V14.01,2013-05-14 01:45:00,
2013-05-13 18:46:00,54.1,48.1,30.15,WSW,243,2.0,-999.0,80,0.01,,,0.14,VWS V14.01,2013-05-14 01:46:00,
2013-05-13 18:51:00,54.2,48.2,30.16,South,169,0.0,-999.0,80,0.01,,,0.14,VWS V14.01,2013-05-14 01:51:00,
2013-05-13 18:56:00,54.2,46.8,30.16,South,182,1.0,-999.0,76,0.01,,,0.14,VWS V14.01,2013-05-14 01:56:00,
2013-05-13 19:00:00,54.0,47.0,30.16,WSW,246,4.0,-999.0,77,0.01,,,0.14,VWS V14.01,2013-05-14 02:00:00,
2013-05-13 19:01:00,54.1,47.1,30.16,SSW,196,5.0,-999.0,77,0.01,,,0.14,VWS V14.01,2013-05-14 02:01:00,
2013-05-13 19:06:00,53.8,46.8,30.17,South,188,1.0,-999.0,77,0.01,,,0.14,VWS V14.01,2013-05-14 02:06:00,
2013-05-13 19:11:00,53.7,46.3,30.17,SSW,195,2.0,-999.0,76,0.01,,,0.14,VWS V14.01,2013-05-14 02:11:00,
2013-05-13 19:15:00,53.5,45.4,30.18,South,176,2.0,-999.0,74,0.01,,,0.14,VWS V14.01,2013-05-14 02:15:00,
2013-05-13 19:17:00,53.5,45.4,30.18,SSE,168,1.0,-999.0,74,0.01,,,0.14,VWS V14.01,2013-05-14 02:17:00,
2013-05-13 19:22:00,53.2,45.1,30.18,SSW,202,4.0,-999.0,74,0.01,,,0.14,VWS V14.01,2013-05-14 02:22:00,
2013-05-13 19:27:00,53.0,45.3,30.18,SSW,209,2.0,-999.0,75,0.01,,,0.14,VWS V14.01,2013-05-14 02:27:00,
2013-05-13 19:30:00,52.8,45.1,30.18,SSW,198,3.0,-999.0,75,0.01,,,0.14,VWS V14.01,2013-05-14 02:30:00,
2013-05-13 19:32:00,52.8,45.1,30.18,SSW,198,3.0,-999.0,75,0.01,,,0.14,VWS V14.01,2013-05-14 02:32:00,
2013-05-13 19:37:00,52.8,45.5,30.19,SSW,195,2.0,-999.0,76,0.00,,,0.14,VWS V14.01,2013-05-14 02:37:00,
2013-05-13 19:42:00,52.9,44.8,30.19,SSE,165,1.0,-999.0,74,0.00,,,0.14,VWS V14.01,2013-05-14 02:42:00,
2013-05-13 19:45:00,52.8,45.1,30.19,SW,235,0.0,-999.0,75,0.00,,,0.14,VWS V14.01,2013-05-14 02:45:00,
2013-05-13 19:47:00,52.8,45.1,30.19,SW,235,0.0,-999.0,75,0.00,,,0.14,VWS V14.01,2013-05-14 02:47:00,
2013-05-13 19:52:00,52.6,44.6,30.19,SW,219,4.0,-999.0,74,0.00,,,0.14,VWS V14.01,2013-05-14 02:52:00,
2013-05-13 19:57:00,52.5,44.5,30.19,SW,223,0.0,-999.0,74,0.00,,,0.14,VWS V14.01,2013-05-14 02:57:00,
2013-05-13 20:00:00,52.5,44.5,30.19,SSE,159,1.0,-999.0,74,0.00,,,0.14,VWS V14.01,2013-05-14 03:00:00,
2013-05-13 20:02:00,52.5,44.5,30.19,SSE,159,1.0,-999.0,74,0.00,,,0.14,VWS V14.01,2013-05-14 03:02:00,
2013-05-13 20:07:00,52.4,44.0,30.20,SW,234,1.0,-999.0,73,0.00,,,0.14,VWS V14.01,2013-05-14 03:07:00,
2013-05-13 20:12:00,52.0,44.3,30.19,East,93,1.0,-999.0,75,0.00,,,0.14,VWS V14.01,2013-05-14 03:12:00,
2013-05-13 20:15:00,51.8,43.8,30.20,SSW,200,1.0,-999.0,74,0.00,,,0.14,VWS V14.01,2013-05-14 03:15:00,
2013-05-13 20:17:00,51.8,43.8,30.20,SSW,200,1.0,-999.0,74,0.00,,,0.14,VWS V14.01,2013-05-14 03:17:00,
2013-05-13 20:22:00,51.4,43.8,30.20,SSW,205,0.0,-999.0,75,0.00,,,0.14,VWS V14.01,2013-05-14 03:22:00,
2013-05-13 20:27:00,51.1,43.8,30.20,SSW,207,2.0,-999.0,76,0.00,,,0.14,VWS V14.01,2013-05-14 03:27:00,
2013-05-13 20:30:00,51.2,43.9,30.21,South,180,0.0,-999.0,76,0.00,,,0.14,VWS V14.01,2013-05-14 03:30:00,
2013-05-13 20:32:00,51.2,43.9,30.21,South,180,1.0,-999.0,76,0.00,,,0.14,VWS V14.01,2013-05-14 03:32:00,
2013-05-13 20:37:00,51.2,44.2,30.21,SSW,207,1.0,-999.0,77,0.00,,,0.14,VWS V14.01,2013-05-14 03:37:00,
2013-05-13 20:42:00,51.3,44.3,30.22,SW,218,2.0,-999.0,77,0.00,,,0.14,VWS V14.01,2013-05-14 03:42:00,
2013-05-13 20:45:00,51.3,44.3,30.22,SSW,203,1.0,-999.0,77,0.00,,,0.14,VWS V14.01,2013-05-14 03:45:00,
2013-05-13 20:47:00,51.3,44.3,30.22,SSW,203,2.0,-999.0,77,0.00,,,0.14,VWS V14.01,2013-05-14 03:47:00,
2013-05-13 20:52:00,51.2,44.2,30.22,SSW,203,0.0,-999.0,77,0.00,,,0.14,VWS V14.01,2013-05-14 03:52:00,
2013-05-13 20:57:00,50.8,44.2,30.22,SW,223,4.0,-999.0,78,0.00,,,0.14,VWS V14.01,2013-05-14 03:57:00,
2013-05-13 21:00:00,50.3,44.7,30.22,South,171,2.0,-999.0,81,0.00,,,0.14,VWS V14.01,2013-05-14 04:00:00,
2013-05-13 21:01:00,50.5,44.6,30.22,SSW,200,1.0,-999.0,80,0.00,,,0.14,VWS V14.01,2013-05-14 04:01:00,
2013-05-13 21:06:00,49.9,44.6,30.22,South,179,1.0,-999.0,82,0.00,,,0.14,VWS V14.01,2013-05-14 04:06:00,
2013-05-13 21:11:00,49.5,44.6,30.23,South,170,1.0,-999.0,83,0.00,,,0.14,VWS V14.01,2013-05-14 04:11:00,
2013-05-13 21:15:00,49.1,44.5,30.23,South,170,0.0,-999.0,84,0.00,,,0.14,VWS V14.01,2013-05-14 04:15:00,
2013-05-13 21:16:00,49.1,44.5,30.23,South,170,0.0,-999.0,84,0.00,,,0.14,VWS V14.01,2013-05-14 04:16:00,
2013-05-13 21:22:00,48.8,44.5,30.23,South,170,0.0,-999.0,85,0.00,,,0.14,VWS V14.01,2013-05-14 04:22:00,
2013-05-13 21:27:00,48.5,44.5,30.23,South,170,0.0,-999.0,86,0.00,,,0.14,VWS V14.01,2013-05-14 04:27:00,
2013-05-13 21:30:00,47.8,44.1,30.23,South,170,0.0,-999.0,87,0.00,,,0.14,VWS V14.01,2013-05-14 04:30:00,
2013-05-13 21:32:00,47.8,44.1,30.23,South,170,0.0,-999.0,87,0.00,,,0.14,VWS V14.01,2013-05-14 04:32:00,
2013-05-13 21:37:00,47.3,44.2,30.23,South,170,0.0,-999.0,89,0.00,,,0.14,VWS V14.01,2013-05-14 04:37:00,
2013-05-13 21:42:00,47.2,44.1,30.24,South,170,0.0,-999.0,89,0.00,,,0.14,VWS V14.01,2013-05-14 04:42:00,
2013-05-13 21:45:00,46.9,44.1,30.24,South,170,1.0,-999.0,90,0.00,,,0.14,VWS V14.01,2013-05-14 04:45:00,
2013-05-13 21:47:00,46.9,44.1,30.24,South,170,1.0,-999.0,90,0.00,,,0.14,VWS V14.01,2013-05-14 04:47:00,
2013-05-13 21:52:00,46.5,43.4,30.24,South,170,0.0,-999.0,89,0.00,,,0.14,VWS V14.01,2013-05-14 04:52:00,
2013-05-13 21:57:00,46.0,43.5,30.24,South,170,0.0,-999.0,91,0.00,,,0.14,VWS V14.01,2013-05-14 04:57:00,
2013-05-13 22:00:00,46.0,43.8,30.24,South,170,0.0,-999.0,92,0.00,,,0.14,VWS V14.01,2013-05-14 05:00:00,
2013-05-13 22:02:00,46.0,43.8,30.24,South,170,0.0,-999.0,92,0.00,,,0.14,VWS V14.01,2013-05-14 05:02:00,
2013-05-13 22:07:00,46.1,43.9,30.24,South,170,0.0,-999.0,92,0.00,,,0.14,VWS V14.01,2013-05-14 05:07:00,
2013-05-13 22:12:00,45.6,43.4,30.24,South,170,0.0,-999.0,92,0.00,,,0.14,VWS V14.01,2013-05-14 05:12:00,
2013-05-13 22:15:00,45.0,42.8,30.24,South,170,0.0,-999.0,92,0.00,,,0.14,VWS V14.01,2013-05-14 05:15:00,
2013-05-13 22:17:00,45.0,42.8,30.24,South,170,0.0,-999.0,92,0.00,,,0.14,VWS V14.01,2013-05-14 05:17:00,
2013-05-13 22:22:00,45.3,43.1,30.24,South,170,0.0,-999.0,92,0.00,,,0.14,VWS V14.01,2013-05-14 05:22:00,
2013-05-13 22:27:00,45.2,43.0,30.24,South,170,1.0,-999.0,92,0.00,,,0.14,VWS V14.01,2013-05-14 05:27:00,
2013-05-13 22:30:00,45.1,42.9,30.24,South,170,0.0,-999.0,92,0.00,,,0.14,VWS V14.01,2013-05-14 05:30:00,
2013-05-13 22:32:00,45.1,42.9,30.24,South,170,0.0,-999.0,92,0.00,,,0.14,VWS V14.01,2013-05-14 05:32:00,
2013-05-13 22:37:00,44.8,42.6,30.24,South,170,0.0,-999.0,92,0.00,,,0.14,VWS V14.01,2013-05-14 05:37:00,
2013-05-13 22:42:00,44.7,42.8,30.24,South,170,0.0,-999.0,93,0.00,,,0.14,VWS V14.01,2013-05-14 05:42:00,
2013-05-13 22:45:00,44.4,42.5,30.24,South,170,0.0,-999.0,93,0.00,,,0.14,VWS V14.01,2013-05-14 05:45:00,
2013-05-13 22:47:00,44.4,42.5,30.24,South,170,0.0,-999.0,93,0.00,,,0.14,VWS V14.01,2013-05-14 05:47:00,
2013-05-13 22:52:00,44.6,42.7,30.23,South,170,0.0,-999.0,93,0.00,,,0.14,VWS V14.01,2013-05-14 05:52:00,
2013-05-13 22:57:00,44.5,42.6,30.23,South,170,0.0,-999.0,93,0.00,,,0.14,VWS V14.01,2013-05-14 05:57:00,
2013-05-13 23:00:00,43.6,41.7,30.23,South,170,0.0,-999.0,93,0.00,,,0.14,VWS V14.01,2013-05-14 06:00:00,
2013-05-13 23:02:00,43.6,41.7,30.23,South,170,0.0,-999.0,93,0.00,,,0.14,VWS V14.01,2013-05-14 06:02:00,
2013-05-13 23:07:00,43.3,41.4,30.22,South,170,0.0,-999.0,93,0.00,,,0.14,VWS V14.01,2013-05-14 06:07:00,
2013-05-13 23:12:00,43.0,41.1,30.22,South,170,0.0,-999.0,93,0.00,,,0.14,VWS V14.01,2013-05-14 06:12:00,
2013-05-13 23:15:00,42.9,41.0,30.22,South,170,0.0,-999.0,93,0.00,,,0.14,VWS V14.01,2013-05-14 06:15:00,
2013-05-13 23:17:00,42.9,41.0,30.22,South,170,0.0,-999.0,93,0.00,,,0.14,VWS V14.01,2013-05-14 06:17:00,
2013-05-13 23:22:00,42.5,40.6,30.22,South,170,0.0,-999.0,93,0.00,,,0.14,VWS V14.01,2013-05-14 06:22:00,
2013-05-13 23:27:00,42.0,40.4,30.21,South,170,0.0,-999.0,94,0.00,,,0.14,VWS V14.01,2013-05-14 06:27:00,
2013-05-13 23:30:00,42.2,40.6,30.22,South,170,0.0,-999.0,94,0.00,,,0.14,VWS V14.01,2013-05-14 06:30:00,
2013-05-13 23:32:00,42.3,40.7,30.21,South,170,0.0,-999.0,94,0.00,,,0.14,VWS V14.01,2013-05-14 06:32:00,
2013-05-13 23:37:00,42.7,41.1,30.22,South,170,0.0,-999.0,94,0.00,,,0.14,VWS V14.01,2013-05-14 06:37:00,
2013-05-13 23:42:00,43.4,42.1,30.22,South,170,0.0,-999.0,95,0.00,,,0.14,VWS V14.01,2013-05-14 06:42:00,
2013-05-13 23:45:00,43.5,41.9,30.22,South,170,0.0,-999.0,94,0.00,,,0.14,VWS V14.01,2013-05-14 06:45:00,
2013-05-13 23:47:00,43.5,41.9,30.22,South,170,0.0,-999.0,94,0.00,,,0.14,VWS V14.01,2013-05-14 06:47:00,
2013-05-13 23:52:00,42.9,41.3,30.22,South,170,0.0,-999.0,94,0.00,,,0.14,VWS V14.01,2013-05-14 06:52:00,
2013-05-13 23:57:00,42.7,41.1,30.22,South,170,0.0,-999.0,94,0.00,,,0.14,VWS V14.01,2013-05-14 06:57:00,